createdAt,value
2022-10-24T00:01:23.729Z,101359.22
2022-10-24T00:03:50.864Z,101344.91
2022-10-24T00:06:18.552Z,101342.06
2022-10-24T00:08:45.596Z,101327.84
2022-10-24T00:11:16.098Z,101320.00
2022-10-24T00:13:43.528Z,101318.41
2022-10-24T00:16:11.210Z,101325.88
2022-10-24T00:18:38.554Z,101321.59
2022-10-24T00:21:06.438Z,101336.44
2022-10-24T00:23:33.462Z,101334.50
2022-10-24T00:26:02.043Z,101333.59
2022-10-24T00:28:30.568Z,101327.41
2022-10-24T00:30:57.665Z,101331.91
2022-10-24T00:33:25.599Z,101325.94
2022-10-24T00:35:53.101Z,101333.06
2022-10-24T00:38:20.175Z,101335.69
2022-10-24T00:40:47.407Z,101332.06
2022-10-24T00:43:16.899Z,101331.91
2022-10-24T00:45:55.732Z,101326.69
2022-10-24T00:48:33.573Z,101329.25
2022-10-24T00:51:21.551Z,101317.75
2022-10-24T00:53:51.783Z,101323.22
2022-10-24T00:56:23.995Z,101327.66
2022-10-24T00:58:53.994Z,101330.28
2022-10-24T01:01:21.069Z,101326.78
2022-10-24T01:03:48.024Z,101332.94
2022-10-24T01:06:23.943Z,101339.97
2022-10-24T01:09:23.461Z,101339.19
2022-10-24T01:11:50.280Z,101342.59
2022-10-24T01:14:46.205Z,101338.97
2022-10-24T01:17:28.713Z,101339.84
2022-10-24T01:20:35.259Z,101333.84
2022-10-24T01:23:20.653Z,101332.94
2022-10-24T01:26:29.570Z,101335.56
2022-10-24T01:29:17.512Z,101338.19
2022-10-24T01:32:34.681Z,101335.59
2022-10-24T01:35:13.495Z,101324.06
2022-10-24T01:37:54.912Z,101325.03
2022-10-24T01:40:31.714Z,101323.25
2022-10-24T01:43:03.294Z,101324.94
2022-10-24T01:45:36.814Z,101329.31
2022-10-24T01:48:08.008Z,101328.41
2022-10-24T01:50:37.942Z,101334.56
2022-10-24T01:53:06.603Z,101335.47
2022-10-24T01:55:33.887Z,101335.38
2022-10-24T01:58:00.735Z,101335.28
2022-10-24T02:00:27.775Z,101330.81
2022-10-24T02:03:19.321Z,101338.94
2022-10-24T02:05:51.703Z,101326.63
2022-10-24T02:08:25.522Z,101330.16
2022-10-24T02:10:57.502Z,101339.81
2022-10-24T02:13:57.230Z,101340.59
2022-10-24T02:16:24.171Z,101336.88
2022-10-24T02:18:53.837Z,101344.88
2022-10-24T02:21:57.983Z,101337.03
2022-10-24T02:24:50.023Z,101333.44
2022-10-24T02:27:29.342Z,101343.19
2022-10-24T02:30:07.762Z,101340.69
2022-10-24T02:32:40.755Z,101339.09
2022-10-24T02:35:10.081Z,101340.66
2022-10-24T02:37:42.928Z,101338.09
2022-10-24T02:40:12.978Z,101339.81
2022-10-24T02:42:42.848Z,101337.06
2022-10-24T02:45:11.984Z,101342.47
2022-10-24T02:47:40.997Z,101347.75
2022-10-24T02:50:08.757Z,101346.06
2022-10-24T02:52:38.443Z,101355.91
2022-10-24T02:55:06.356Z,101344.63
2022-10-24T02:57:33.545Z,101355.22
2022-10-24T03:00:00.418Z,101356.97
2022-10-24T03:02:27.289Z,101356.97
2022-10-24T03:04:54.196Z,101357.81
2022-10-24T03:07:21.152Z,101353.38
2022-10-24T03:09:48.109Z,101345.50
2022-10-24T03:12:17.080Z,101346.34
2022-10-24T03:14:44.760Z,101345.50
2022-10-24T03:17:11.708Z,101336.69
2022-10-24T03:19:38.750Z,101339.28
2022-10-24T03:22:05.702Z,101345.44
2022-10-24T03:24:43.967Z,101341.00
2022-10-24T03:27:11.277Z,101342.78
2022-10-24T03:29:38.115Z,101338.41
2022-10-24T03:32:05.779Z,101337.56
2022-10-24T03:34:33.046Z,101338.47
2022-10-24T03:36:59.967Z,101337.56
2022-10-24T03:39:26.880Z,101330.53
2022-10-24T03:41:53.729Z,101324.41
2022-10-24T03:44:20.615Z,101317.38
2022-10-24T03:46:47.522Z,101315.63
2022-10-24T03:49:14.416Z,101322.66
2022-10-24T03:51:41.302Z,101333.19
2022-10-24T03:54:08.156Z,101330.56
2022-10-24T03:56:35.022Z,101323.53
2022-10-24T03:59:01.985Z,101327.06
2022-10-24T04:01:29.122Z,101327.84
2022-10-24T04:03:56.009Z,101328.75
2022-10-24T04:06:22.901Z,101325.28
2022-10-24T04:08:49.833Z,101327.91
2022-10-24T04:11:16.673Z,101329.66
2022-10-24T04:13:43.925Z,101326.94
2022-10-24T04:16:10.866Z,101322.47
2022-10-24T04:18:37.760Z,101317.25
2022-10-24T04:21:05.050Z,101306.81
2022-10-24T04:23:35.814Z,101309.41
2022-10-24T04:26:02.808Z,101302.38
2022-10-24T04:28:30.260Z,101308.56
2022-10-24T04:30:57.740Z,101318.22
2022-10-24T04:33:25.035Z,101314.72
2022-10-24T04:35:52.828Z,101315.59
2022-10-24T04:38:19.985Z,101324.38
2022-10-24T04:40:49.425Z,101328.75
2022-10-24T04:43:16.748Z,101325.25
2022-10-24T04:45:43.644Z,101322.63
2022-10-24T04:48:10.522Z,101334.09
2022-10-24T04:50:39.281Z,101328.78
2022-10-24T04:53:06.174Z,101337.47
2022-10-24T04:55:33.174Z,101340.91
2022-10-24T04:58:00.103Z,101347.94
2022-10-24T05:00:27.383Z,101333.31
2022-10-24T05:02:56.767Z,101340.78
2022-10-24T05:05:26.035Z,101349.13
2022-10-24T05:07:53.011Z,101349.69
2022-10-24T05:10:20.391Z,101353.91
2022-10-24T05:12:47.566Z,101347.94
2022-10-24T05:15:15.161Z,101343.19
2022-10-24T05:17:42.231Z,101345.03
2022-10-24T05:20:09.675Z,101345.63
2022-10-24T05:22:36.942Z,101343.88
2022-10-24T05:25:04.550Z,101332.72
2022-10-24T05:27:31.581Z,101341.22
2022-10-24T05:29:58.609Z,101337.03
2022-10-24T05:32:26.185Z,101346.16
2022-10-24T05:34:53.115Z,101342.44
2022-10-24T05:37:20.015Z,101349.13
2022-10-24T05:39:46.995Z,101355.22
2022-10-24T05:42:14.633Z,101348.84
2022-10-24T05:44:41.612Z,101354.63
2022-10-24T05:47:08.488Z,101357.69
2022-10-24T05:49:35.697Z,101365.41
2022-10-24T05:52:02.621Z,101365.59
2022-10-24T05:54:37.621Z,101375.03
2022-10-24T05:57:15.730Z,101387.31
2022-10-24T05:59:42.604Z,101385.44
2022-10-24T06:02:18.246Z,101388.88
2022-10-24T06:04:45.643Z,101389.25
2022-10-24T06:07:12.686Z,101391.22
2022-10-24T06:09:41.837Z,101390.00
2022-10-24T06:12:10.221Z,101387.72
2022-10-24T06:14:38.472Z,101397.63
2022-10-24T06:17:06.367Z,101388.06
2022-10-24T06:19:33.322Z,101388.06
2022-10-24T06:22:00.158Z,101397.28
2022-10-24T06:24:27.009Z,101398.38
2022-10-24T06:26:54.020Z,101396.28
2022-10-24T06:29:20.954Z,101398.97
2022-10-24T06:31:48.060Z,101393.31
2022-10-24T06:34:15.158Z,101406.16
2022-10-24T06:36:41.985Z,101407.59
2022-10-24T06:39:08.883Z,101407.78
2022-10-24T06:41:35.792Z,101408.19
2022-10-24T06:44:04.321Z,101404.66
2022-10-24T06:46:32.654Z,101401.97
2022-10-24T06:48:59.712Z,101400.91
2022-10-24T06:51:26.594Z,101403.50
2022-10-24T06:53:53.442Z,101390.00
2022-10-24T06:56:20.470Z,101392.94
2022-10-24T06:58:47.362Z,101391.38
2022-10-24T07:01:17.675Z,101388.75
2022-10-24T07:03:45.143Z,101390.34
2022-10-24T07:06:18.704Z,101385.34
2022-10-24T07:08:46.335Z,101384.47
2022-10-24T07:11:13.520Z,101393.06
2022-10-24T07:13:40.632Z,101389.88
2022-10-24T07:16:08.066Z,101389.28
2022-10-24T07:18:34.970Z,101389.19
2022-10-24T07:21:04.014Z,101388.78
2022-10-24T07:23:31.423Z,101388.41
2022-10-24T07:26:03.668Z,101394.81
2022-10-24T07:28:30.565Z,101385.72
2022-10-24T07:30:57.488Z,101393.72
2022-10-24T07:33:24.812Z,101402.78
2022-10-24T07:35:51.789Z,101395.09
2022-10-24T07:38:18.932Z,101386.38
2022-10-24T07:40:46.453Z,101394.78
2022-10-24T07:43:13.458Z,101384.38
2022-10-24T07:45:40.613Z,101385.38
2022-10-24T07:48:07.537Z,101388.72
2022-10-24T07:50:35.698Z,101384.63
2022-10-24T07:53:02.548Z,101388.94
2022-10-24T07:55:29.445Z,101384.28
2022-10-24T07:57:57.785Z,101388.84
2022-10-24T08:00:25.204Z,101393.63
2022-10-24T08:02:52.102Z,101386.47
2022-10-24T08:05:22.154Z,101386.75
2022-10-24T08:07:56.291Z,101385.91
2022-10-24T08:10:33.046Z,101383.22
2022-10-24T08:13:00.042Z,101384.16
2022-10-24T08:15:27.973Z,101389.44
2022-10-24T08:17:55.407Z,101376.84
2022-10-24T08:20:24.244Z,101375.69
2022-10-24T08:22:51.139Z,101365.16
2022-10-24T08:25:18.124Z,101362.00
2022-10-24T08:27:45.057Z,101363.03
2022-10-24T08:30:12.613Z,101365.06
2022-10-24T08:32:40.349Z,101353.75
2022-10-24T08:35:07.962Z,101364.97
2022-10-24T08:40:16.737Z,101351.81
2022-10-24T08:42:44.556Z,101347.94
2022-10-24T08:45:27.867Z,101342.06
2022-10-24T08:48:14.040Z,101345.84
2022-10-24T08:50:47.541Z,101337.44
2022-10-24T08:53:22.952Z,101343.63
2022-10-24T08:55:55.734Z,101348.84
2022-10-24T08:58:34.415Z,101357.13
2022-10-24T09:01:05.108Z,101354.84
2022-10-24T09:03:54.998Z,101351.94
2022-10-24T09:06:25.972Z,101354.28
2022-10-24T09:08:55.680Z,101357.38
2022-10-24T09:11:47.331Z,101350.53
2022-10-24T09:14:22.992Z,101351.53
2022-10-24T09:16:54.819Z,101349.78
2022-10-24T09:19:24.703Z,101346.94
2022-10-24T09:21:54.333Z,101337.09
2022-10-24T09:24:59.864Z,101333.47
2022-10-24T09:27:38.454Z,101337.19
2022-10-24T09:30:08.102Z,101329.53
2022-10-24T09:32:36.890Z,101325.81
2022-10-24T09:35:08.993Z,101323.88
2022-10-24T09:37:43.890Z,101318.88
2022-10-24T09:40:24.238Z,101301.97
2022-10-24T09:43:00.801Z,101311.34
2022-10-24T09:45:37.421Z,101315.03
2022-10-24T09:48:26.060Z,101305.66
2022-10-24T09:50:57.309Z,101308.09
2022-10-24T09:53:36.174Z,101300.31
2022-10-24T09:56:15.977Z,101298.59
2022-10-24T09:58:43.234Z,101302.53
2022-10-24T10:01:22.936Z,101297.63
2022-10-24T10:04:10.085Z,101287.75
2022-10-24T10:06:47.294Z,101293.22
2022-10-24T10:09:26.007Z,101293.56
2022-10-24T10:12:02.469Z,101280.19
2022-10-24T10:14:30.370Z,101280.94
2022-10-24T10:17:07.605Z,101277.69
2022-10-24T10:19:38.804Z,101276.75
2022-10-24T10:22:20.825Z,101279.78
2022-10-24T10:24:48.233Z,101270.53
2022-10-24T10:27:32.188Z,101281.09
2022-10-24T10:30:17.184Z,101273.06
2022-10-24T10:32:53.873Z,101265.47
2022-10-24T10:35:28.257Z,101270.28
2022-10-24T10:37:58.024Z,101273.72
2022-10-24T10:40:24.863Z,101271.81
2022-10-24T10:43:03.776Z,101268.91
2022-10-24T10:45:51.004Z,101271.72
2022-10-24T10:48:56.201Z,101263.44
2022-10-24T10:52:04.486Z,101269.03
2022-10-24T10:54:49.548Z,101258.41
2022-10-24T10:57:35.342Z,101247.38
2022-10-24T11:00:12.430Z,101247.59
2022-10-24T11:03:21.122Z,101247.00
2022-10-24T11:06:10.538Z,101242.06
2022-10-24T11:09:08.228Z,101245.47
2022-10-24T11:11:41.299Z,101244.59
2022-10-24T11:14:31.988Z,101243.66
2022-10-24T11:17:26.580Z,101241.44
2022-10-24T11:20:31.425Z,101239.81
2022-10-24T11:23:10.010Z,101236.31
2022-10-24T11:25:43.156Z,101233.59
2022-10-24T11:28:12.838Z,101235.84
2022-10-24T11:30:47.429Z,101234.66
2022-10-24T11:33:19.215Z,101237.47
2022-10-24T11:36:17.127Z,101236.50
2022-10-24T11:38:54.085Z,101231.88
2022-10-24T11:41:40.089Z,101219.50
2022-10-24T11:44:23.340Z,101222.41
2022-10-24T11:47:05.522Z,101228.81
2022-10-24T11:49:46.090Z,101221.31
2022-10-24T11:52:21.960Z,101224.25
2022-10-24T11:55:21.735Z,101214.31
2022-10-24T11:57:58.680Z,101216.47
2022-10-24T12:00:32.172Z,101213.16
2022-10-24T12:03:47.147Z,101209.03
2022-10-24T12:06:40.531Z,101203.19
2022-10-24T12:09:24.188Z,101202.06
2022-10-24T12:12:23.176Z,101196.13
2022-10-24T12:15:27.442Z,101209.41
2022-10-24T12:17:54.274Z,101207.88
2022-10-24T12:20:23.360Z,101196.66
2022-10-24T12:22:51.664Z,101190.69
2022-10-24T12:25:30.214Z,101201.78
2022-10-24T12:28:03.443Z,101188.84
2022-10-24T12:30:36.508Z,101183.50
2022-10-24T12:33:03.487Z,101182.13
2022-10-24T12:35:37.594Z,101194.00
2022-10-24T12:38:35.781Z,101187.53
2022-10-24T12:41:24.012Z,101193.94
2022-10-24T12:43:50.981Z,101185.41
2022-10-24T12:46:23.140Z,101184.88
2022-10-24T12:48:59.378Z,101181.78
2022-10-24T12:51:39.233Z,101182.09
2022-10-24T12:54:12.136Z,101181.38
2022-10-24T12:56:54.109Z,101180.91
2022-10-24T12:59:44.958Z,101174.97
2022-10-24T13:02:12.701Z,101179.81
2022-10-24T13:04:48.704Z,101181.16
2022-10-24T13:07:30.560Z,101169.13
2022-10-24T13:10:18.909Z,101175.59
2022-10-24T13:13:00.860Z,101177.59
2022-10-24T13:15:57.502Z,101169.13
2022-10-24T13:18:42.725Z,101171.63
2022-10-24T13:21:31.433Z,101178.47
2022-10-24T13:24:16.729Z,101173.50
2022-10-24T13:26:55.857Z,101174.22
2022-10-24T13:29:28.984Z,101169.19
2022-10-24T13:32:18.686Z,101178.88
2022-10-24T13:34:50.659Z,101175.06
2022-10-24T13:37:25.756Z,101173.44
2022-10-24T13:40:27.993Z,101164.78
2022-10-24T13:43:02.165Z,101168.72
2022-10-24T13:46:00.518Z,101157.72
2022-10-24T13:48:35.066Z,101163.22
2022-10-24T13:51:17.412Z,101158.41
2022-10-24T13:53:50.268Z,101161.78
2022-10-24T13:56:18.145Z,101167.53
2022-10-24T13:58:45.755Z,101168.06
2022-10-24T14:01:24.086Z,101170.53
2022-10-24T14:03:52.539Z,101162.19
2022-10-24T14:06:31.102Z,101169.72
2022-10-24T14:09:06.869Z,101158.09
2022-10-24T14:11:39.360Z,101157.13
2022-10-24T14:14:22.242Z,101162.81
2022-10-24T14:17:05.871Z,101156.78
2022-10-24T14:19:36.176Z,101167.22
2022-10-24T14:22:18.874Z,101167.03
2022-10-24T14:24:48.387Z,101156.91
2022-10-24T14:27:16.187Z,101169.91
2022-10-24T14:29:56.856Z,101167.25
2022-10-24T14:32:25.587Z,101166.66
2022-10-24T14:34:55.508Z,101166.56
2022-10-24T14:37:35.799Z,101172.66
2022-10-24T14:40:04.819Z,101169.53
2022-10-24T14:42:32.483Z,101180.22
2022-10-24T14:45:00.163Z,101171.47
2022-10-24T14:47:34.223Z,101176.41
2022-10-24T14:50:01.686Z,101175.63
2022-10-24T14:52:37.084Z,101178.78
2022-10-24T14:55:08.183Z,101176.84
2022-10-24T14:57:36.955Z,101179.53
2022-10-24T15:00:19.728Z,101186.97
2022-10-24T15:02:49.999Z,101180.53
2022-10-24T15:05:19.865Z,101177.22
2022-10-24T15:08:09.353Z,101186.69
2022-10-24T15:10:36.116Z,101182.09
2022-10-24T15:13:11.637Z,101184.09
2022-10-24T15:15:49.603Z,101178.56
2022-10-24T15:18:41.264Z,101181.25
2022-10-24T15:21:15.125Z,101179.31
2022-10-24T15:23:55.679Z,101187.47
2022-10-24T15:26:42.855Z,101197.66
2022-10-24T15:29:12.555Z,101201.75
2022-10-24T15:31:48.238Z,101204.06
2022-10-24T15:34:18.485Z,101197.28
2022-10-24T15:36:47.110Z,101196.34
2022-10-24T15:39:17.479Z,101200.50
2022-10-24T15:41:44.425Z,101203.94
2022-10-24T15:44:18.902Z,101203.31
2022-10-24T15:46:46.938Z,101196.00
2022-10-24T15:49:14.395Z,101200.63
2022-10-24T15:51:45.991Z,101200.38
2022-10-24T15:54:19.569Z,101202.72
2022-10-24T15:56:47.199Z,101207.53
2022-10-24T15:59:14.662Z,101195.59
2022-10-24T16:02:03.165Z,101205.75
2022-10-24T16:04:32.704Z,101206.94
2022-10-24T16:07:00.077Z,101206.09
2022-10-24T16:09:27.874Z,101206.97
2022-10-24T16:11:55.295Z,101206.38
2022-10-24T16:14:23.722Z,101207.09
2022-10-24T16:16:50.659Z,101201.03
2022-10-24T16:19:17.644Z,101200.97
2022-10-24T16:21:44.815Z,101210.25
2022-10-24T16:24:12.767Z,101208.03
2022-10-24T16:26:40.692Z,101215.78
2022-10-24T16:29:07.796Z,101208.75
2022-10-24T16:31:35.203Z,101214.31
2022-10-24T16:34:02.060Z,101215.53
2022-10-24T16:36:29.410Z,101210.78
2022-10-24T16:38:56.493Z,101210.06
2022-10-24T16:41:26.025Z,101211.72
2022-10-24T16:43:57.824Z,101210.06
2022-10-24T16:46:26.727Z,101205.94
2022-10-24T16:48:53.796Z,101218.38
2022-10-24T16:51:32.256Z,101216.03
2022-10-24T16:54:00.965Z,101221.13
2022-10-24T16:56:29.005Z,101222.31
2022-10-24T16:58:55.932Z,101221.59
2022-10-24T17:01:23.324Z,101213.53
2022-10-24T17:03:50.326Z,101214.91
2022-10-24T17:06:17.234Z,101223.75
2022-10-24T17:08:44.276Z,101219.94
2022-10-24T17:11:39.529Z,101218.94
2022-10-24T17:13:58.622Z,101224.16
2022-10-24T17:16:25.662Z,101225.19
2022-10-24T17:19:12.171Z,101221.53
2022-10-24T17:21:39.561Z,101222.53
2022-10-24T17:24:12.078Z,101224.25
2022-10-24T17:26:39.907Z,101218.91
2022-10-24T17:29:08.502Z,101223.22
2022-10-24T17:31:36.093Z,101217.19
2022-10-24T17:34:03.487Z,101212.19
2022-10-24T17:36:34.951Z,101215.22
2022-10-24T17:39:33.616Z,101215.50
2022-10-24T17:42:00.565Z,101220.59
2022-10-24T17:44:27.601Z,101217.94
2022-10-24T17:46:58.251Z,101216.69
2022-10-24T17:49:25.398Z,101211.69
2022-10-24T17:51:52.388Z,101213.88
2022-10-24T17:54:19.325Z,101218.38
2022-10-24T17:56:46.341Z,101212.78
2022-10-24T17:59:13.765Z,101206.44
2022-10-24T18:01:41.217Z,101216.00
2022-10-24T18:04:08.239Z,101215.78
2022-10-24T18:06:37.251Z,101211.34
2022-10-24T18:09:07.598Z,101206.09
2022-10-24T18:11:34.501Z,101210.56
2022-10-24T18:14:01.456Z,101202.06
2022-10-24T18:16:30.599Z,101202.69
2022-10-24T18:18:57.897Z,101202.63
2022-10-24T18:21:25.711Z,101201.31
2022-10-24T18:23:54.352Z,101202.31
2022-10-24T18:26:24.278Z,101200.75
2022-10-24T18:28:53.402Z,101190.53
2022-10-24T18:31:26.206Z,101194.47
2022-10-24T18:33:54.402Z,101192.50
2022-10-24T18:36:27.785Z,101191.31
2022-10-24T18:38:56.074Z,101192.28
2022-10-24T18:41:37.804Z,101188.81
2022-10-24T18:44:29.284Z,101190.41
2022-10-24T18:47:01.317Z,101185.72
2022-10-24T18:49:30.261Z,101186.69
2022-10-24T18:52:12.315Z,101180.75
2022-10-24T18:54:53.221Z,101190.13
2022-10-24T18:57:28.740Z,101181.09
2022-10-24T18:59:57.408Z,101189.13
2022-10-24T19:02:37.640Z,101178.56
2022-10-24T19:05:14.580Z,101187.56
2022-10-24T19:07:42.567Z,101185.78
2022-10-24T19:10:22.832Z,101183.75
2022-10-24T19:12:50.906Z,101186.41
2022-10-24T19:15:18.436Z,101181.81
2022-10-24T19:17:46.714Z,101179.19
2022-10-24T19:20:16.322Z,101183.28
2022-10-24T19:22:43.520Z,101183.66
2022-10-24T19:25:10.972Z,101178.59
2022-10-24T19:27:37.966Z,101176.28
2022-10-24T19:30:05.964Z,101184.75
2022-10-24T19:32:33.238Z,101180.47
2022-10-24T19:35:00.167Z,101175.03
2022-10-24T19:37:27.297Z,101182.47
2022-10-24T19:39:54.211Z,101171.84
2022-10-24T19:42:21.298Z,101189.59
2022-10-24T19:44:50.166Z,101184.00
2022-10-24T19:47:17.310Z,101188.13
2022-10-24T19:49:44.177Z,101186.88
2022-10-24T19:52:11.202Z,101182.94
2022-10-24T19:54:38.178Z,101179.41
2022-10-24T19:57:05.045Z,101191.22
2022-10-24T19:59:33.996Z,101186.50
2022-10-24T20:02:01.056Z,101186.94
2022-10-24T20:04:28.238Z,101185.63
2022-10-24T20:06:55.147Z,101180.34
2022-10-24T20:09:22.068Z,101182.84
2022-10-24T20:11:49.022Z,101195.22
2022-10-24T20:14:15.986Z,101179.41
2022-10-24T20:16:42.898Z,101183.97
2022-10-24T20:19:09.910Z,101174.47
2022-10-24T20:21:37.710Z,101177.75
2022-10-24T20:24:04.952Z,101177.53
2022-10-24T20:26:32.105Z,101162.41
2022-10-24T20:28:59.200Z,101164.78
2022-10-24T20:31:33.799Z,101170.94
2022-10-24T20:34:07.089Z,101161.84
2022-10-24T20:36:36.241Z,101168.44
2022-10-24T20:39:05.188Z,101157.13
2022-10-24T20:41:32.222Z,101160.72
2022-10-24T20:43:59.152Z,101158.69
2022-10-24T20:46:26.022Z,101168.47
2022-10-24T20:48:53.942Z,101169.22
2022-10-24T20:51:21.389Z,101165.53
2022-10-24T20:53:48.417Z,101159.78
2022-10-24T20:56:18.194Z,101155.91
2022-10-24T20:58:45.567Z,101156.25
2022-10-24T21:01:17.172Z,101154.22
2022-10-24T21:03:44.589Z,101151.69
2022-10-24T21:06:15.904Z,101151.72
2022-10-24T21:08:42.854Z,101150.31
2022-10-24T21:11:13.358Z,101147.84
2022-10-24T21:13:40.237Z,101157.69
2022-10-24T21:16:07.578Z,101156.19
2022-10-24T21:18:34.464Z,101154.53
2022-10-24T21:21:12.511Z,101155.63
2022-10-24T21:23:39.747Z,101145.19
2022-10-24T21:26:12.989Z,101148.72
2022-10-24T21:28:39.903Z,101145.84
2022-10-24T21:31:09.646Z,101142.34
2022-10-24T21:33:37.610Z,101136.25
2022-10-24T21:36:06.580Z,101139.69
2022-10-24T21:38:33.862Z,101130.38
2022-10-24T21:41:08.737Z,101132.03
2022-10-24T21:43:38.303Z,101131.78
2022-10-24T21:46:13.859Z,101133.22
2022-10-24T21:48:42.367Z,101133.31
2022-10-24T21:51:10.521Z,101125.66
2022-10-24T21:53:40.504Z,101134.22
2022-10-24T21:56:10.863Z,101128.28
2022-10-24T21:58:38.101Z,101127.44
2022-10-24T22:01:13.401Z,101129.16
2022-10-24T22:03:41.825Z,101128.41
2022-10-24T22:06:11.612Z,101125.19
2022-10-24T22:08:38.556Z,101121.69
2022-10-24T22:11:08.464Z,101113.84
2022-10-24T22:13:36.872Z,101119.91
2022-10-24T22:16:04.654Z,101121.75
2022-10-24T22:18:32.933Z,101119.09
2022-10-24T22:21:01.622Z,101123.75
2022-10-24T22:23:28.807Z,101118.19
2022-10-24T22:25:55.913Z,101120.16
2022-10-24T22:28:22.808Z,101119.16
2022-10-24T22:30:50.061Z,101119.84
2022-10-24T22:33:31.257Z,101117.84
2022-10-24T22:36:03.254Z,101118.66
2022-10-24T22:38:30.295Z,101106.97
2022-10-24T22:40:57.508Z,101117.22
2022-10-24T22:43:24.707Z,101112.78
2022-10-24T22:46:03.649Z,101111.03
2022-10-24T22:48:37.094Z,101108.44
2022-10-24T22:51:04.261Z,101114.09
2022-10-24T22:53:31.503Z,101106.75
2022-10-24T22:56:11.459Z,101110.06
2022-10-24T22:58:39.822Z,101110.38
2022-10-24T23:01:15.727Z,101109.19
2022-10-24T23:04:08.077Z,101121.25
2022-10-24T23:06:51.544Z,101117.34
2022-10-24T23:09:18.511Z,101112.41
2022-10-24T23:11:45.724Z,101101.84
2022-10-24T23:14:13.004Z,101100.94
2022-10-24T23:16:51.658Z,101104.19
2022-10-24T23:19:21.925Z,101099.72
2022-10-24T23:21:56.739Z,101106.63
2022-10-24T23:24:23.871Z,101097.88
2022-10-24T23:27:19.057Z,101101.84
2022-10-24T23:29:47.220Z,101100.22
2022-10-24T23:32:19.575Z,101100.34
2022-10-24T23:34:46.894Z,101104.22
2022-10-24T23:37:34.755Z,101100.47
2022-10-24T23:40:17.075Z,101099.63
2022-10-24T23:42:51.497Z,101095.19
2022-10-24T23:45:21.302Z,101091.22
2022-10-24T23:47:53.320Z,101093.19
2022-10-24T23:51:06.845Z,101086.91
2022-10-24T23:53:33.661Z,101086.00
2022-10-24T23:58:32.656Z,101077.09
